Terminal Aerodrome Forecast
Issued by NWS Cleveland, OH

Home | Current Version | Previous Version | Graphics & Text | Print | Product List | Glossary Off
Versions: 1 2 3 4 5 6 7 8 9 10 11 12 13 14 15 16 17

000
FTUS41 KCLE 042337
TAFMFD
TAF
KMFD 042337Z 0500/0524 27006KT 6SM -SHRA BKN008 OVC012
      TEMPO 0500/0504 5SM -SHRA SCT008
     FM051200 35010KT 5SM -SHRA SCT006 OVC012
     FM051800 01014G22KT P6SM SCT012 OVC025=

USA.gov is the U.S. government's official web portal to all federal, state and local government web resources and services.